Time;durP1;ratioP1;P1;durP2;ratioP2;P2;SDS_P1;SDS_P2;PMS_P1;PMS_P2;Temp;Humidity;BMP_temperature;BMP_pressure;BME280_temperature;BME280_humidity;BME280_pressure;Samples;Min_cycle;Max_cycle;Signal;HPM_P1;HPM_P2
2021/07/11 00:00:51;;;;;;;3.92;1.80;;;;;;;;;;4951284;29;20492;-84
2021/07/11 00:03:36;;;;;;;2.50;1.50;;;;;;;;;;4963609;28;20042;-82
2021/07/11 00:06:21;;;;;;;3.63;1.73;;;;;;;;;;4950596;29;20150;-84
2021/07/11 00:09:07;;;;;;;3.05;1.88;;;;;;;;;;4953846;28;20071;-83
2021/07/11 00:11:52;;;;;;;2.15;1.65;;;;;;;;;;4969316;28;20065;-82
2021/07/11 00:14:37;;;;;;;4.38;2.10;;;;;;;;;;4969013;28;20027;-82
2021/07/11 00:17:22;;;;;;;2.65;1.77;;;;;;;;;;4969472;28;20045;-85
2021/07/11 00:20:08;;;;;;;1.90;1.80;;;;;;;;;;4969496;28;20110;-82
2021/07/11 00:22:54;;;;;;;4.60;2.17;;;;;;;;;;4969444;28;20035;-82
2021/07/11 00:25:40;;;;;;;3.28;1.90;;;;;;;;;;4969195;28;20069;-82
2021/07/11 00:28:25;;;;;;;2.88;2.00;;;;;;;;;;4969496;28;20030;-83
2021/07/11 00:31:10;;;;;;;3.63;2.03;;;;;;;;;;4963069;28;20073;-82
2021/07/11 00:33:55;;;;;;;2.67;1.90;;;;;;;;;;4964759;28;20030;-82
2021/07/11 00:36:40;;;;;;;4.88;2.10;;;;;;;;;;4969325;28;20469;-83
2021/07/11 00:39:26;;;;;;;1.90;1.60;;;;;;;;;;4968766;28;20393;-82
2021/07/11 00:42:12;;;;;;;3.90;2.20;;;;;;;;;;4969365;28;20058;-82
2021/07/11 00:44:57;;;;;;;3.60;2.05;;;;;;;;;;4968973;28;20022;-82
2021/07/11 00:47:43;;;;;;;2.40;1.85;;;;;;;;;;4968700;28;20085;-82
2021/07/11 00:50:29;;;;;;;3.95;1.60;;;;;;;;;;4967366;28;20054;-82
2021/07/11 00:53:15;;;;;;;6.03;2.60;;;;;;;;;;4962729;28;20036;-83
2021/07/11 00:56:03;;;;;;;4.45;2.38;;;;;;;;;;4949676;29;20062;-83
2021/07/11 00:58:48;;;;;;;3.97;1.80;;;;;;;;;;4948284;29;20023;-82
2021/07/11 01:01:56;;;;;;;3.17;1.98;;;;;;;;;;4965309;28;20034;-84
2021/07/11 01:04:58;;;;;;;1.63;1.42;;;;;;;;;;4968938;28;20037;-82
2021/07/11 01:07:46;;;;;;;3.40;1.70;;;;;;;;;;4968746;28;20505;-82
2021/07/11 01:10:33;;;;;;;5.82;2.10;;;;;;;;;;4971448;28;20109;-82
2021/07/11 01:13:20;;;;;;;3.95;1.75;;;;;;;;;;4958847;28;20066;-82
2021/07/11 01:16:16;;;;;;;3.03;1.90;;;;;;;;;;4967158;28;20034;-82
2021/07/11 01:19:09;;;;;;;2.33;1.85;;;;;;;;;;4953548;29;20023;-82
2021/07/11 01:21:59;;;;;;;2.50;1.83;;;;;;;;;;4966552;28;20482;-82
2021/07/11 01:24:46;;;;;;;;;;;;;;;;;;4967471;28;20194;-82
2021/07/11 01:27:32;;;;;;;6.97;2.05;;;;;;;;;;4953032;29;20361;-82
2021/07/11 01:30:19;;;;;;;3.70;1.73;;;;;;;;;;4953338;29;20031;-82
2021/07/11 01:33:05;;;;;;;2.47;1.75;;;;;;;;;;4972201;28;20030;-81
2021/07/11 01:35:51;;;;;;;6.00;2.38;;;;;;;;;;4972454;28;20030;-82
2021/07/11 01:38:37;;;;;;;3.33;1.92;;;;;;;;;;4972604;28;20397;-82
2021/07/11 01:41:25;;;;;;;3.40;1.95;;;;;;;;;;4971824;28;20370;-83
2021/07/11 01:44:11;;;;;;;3.72;2.08;;;;;;;;;;4972374;28;20351;-83
2021/07/11 01:46:57;;;;;;;6.97;2.03;;;;;;;;;;4972462;28;20041;-81
2021/07/11 01:49:42;;;;;;;2.97;1.90;;;;;;;;;;4969740;28;20486;-83
2021/07/11 01:52:27;;;;;;;2.58;1.83;;;;;;;;;;4966422;28;20122;-81
2021/07/11 01:55:13;;;;;;;2.63;1.90;;;;;;;;;;4949436;29;20027;-82
2021/07/11 01:57:58;;;;;;;3.05;1.50;;;;;;;;;;4959590;28;20023;-84
2021/07/11 02:00:44;;;;;;;2.45;1.67;;;;;;;;;;4945448;28;20031;-81
2021/07/11 02:03:29;;;;;;;3.92;1.80;;;;;;;;;;4971349;28;20097;-81
2021/07/11 02:06:14;;;;;;;2.70;1.70;;;;;;;;;;4957935;28;20318;-81
2021/07/11 02:09:00;;;;;;;4.60;1.90;;;;;;;;;;4970157;28;20027;-82
2021/07/11 02:11:45;;;;;;;2.90;2.08;;;;;;;;;;4971148;28;20034;-82
2021/07/11 02:14:31;;;;;;;3.47;1.80;;;;;;;;;;4971531;28;20048;-82
2021/07/11 02:17:21;;;;;;;2.42;1.88;;;;;;;;;;4971647;28;20022;-82
2021/07/11 02:20:06;;;;;;;2.28;1.70;;;;;;;;;;4963845;28;20485;-82
2021/07/11 02:22:53;;;;;;;2.85;1.90;;;;;;;;;;4960263;28;20038;-84
2021/07/11 02:25:38;;;;;;;3.45;1.80;;;;;;;;;;4971170;28;20058;-82
2021/07/11 02:28:24;;;;;;;6.18;2.35;;;;;;;;;;4971620;28;20092;-82
2021/07/11 02:31:13;;;;;;;4.78;1.75;;;;;;;;;;4971225;28;20089;-81
2021/07/11 02:33:58;;;;;;;2.92;2.03;;;;;;;;;;4957207;28;20033;-82
2021/07/11 02:36:45;;;;;;;2.63;1.75;;;;;;;;;;4969720;28;20112;-81
2021/07/11 02:39:31;;;;;;;2.85;1.85;;;;;;;;;;4971177;28;20038;-82
2021/07/11 02:42:17;;;;;;;3.35;2.13;;;;;;;;;;4954894;28;20035;-82
2021/07/11 02:45:03;;;;;;;3.58;2.15;;;;;;;;;;4967429;28;20019;-82
2021/07/11 02:47:49;;;;;;;3.67;1.70;;;;;;;;;;4971181;28;20394;-82
2021/07/11 02:50:34;;;;;;;4.93;2.28;;;;;;;;;;4963775;28;20516;-82
2021/07/11 02:53:22;;;;;;;4.93;2.15;;;;;;;;;;4957600;28;20030;-82
2021/07/11 02:56:07;;;;;;;4.03;2.45;;;;;;;;;;4970936;28;20030;-82
2021/07/11 02:58:54;;;;;;;7.00;2.08;;;;;;;;;;4970795;28;20026;-82
2021/07/11 03:01:40;;;;;;;8.95;2.25;;;;;;;;;;4955368;28;20034;-82
2021/07/11 03:04:27;;;;;;;4.60;2.20;;;;;;;;;;4963151;28;20034;-82
2021/07/11 03:07:14;;;;;;;2.28;1.90;;;;;;;;;;4949824;29;20442;-82
2021/07/11 03:09:59;;;;;;;2.33;1.80;;;;;;;;;;4953989;28;20536;-82
2021/07/11 03:12:44;;;;;;;4.22;2.38;;;;;;;;;;4964698;28;20122;-83
2021/07/11 03:15:30;;;;;;;2.28;1.92;;;;;;;;;;4960716;28;20035;-81
2021/07/11 03:18:16;;;;;;;2.75;2.08;;;;;;;;;;4971146;28;20077;-82
2021/07/11 03:21:03;;;;;;;3.13;2.15;;;;;;;;;;4964569;28;20098;-82
2021/07/11 03:23:48;;;;;;;5.85;2.30;;;;;;;;;;4951850;28;20480;-82
2021/07/11 03:26:35;;;;;;;3.92;1.73;;;;;;;;;;4970557;28;20122;-82
2021/07/11 03:29:26;;;;;;;3.28;2.05;;;;;;;;;;4970098;28;20393;-82
2021/07/11 03:32:14;;;;;;;2.20;1.65;;;;;;;;;;4970137;28;20035;-82
2021/07/11 03:35:01;;;;;;;5.88;1.88;;;;;;;;;;4963832;28;20532;-82
2021/07/11 03:37:47;;;;;;;4.32;1.85;;;;;;;;;;4949445;29;20027;-82
2021/07/11 03:40:36;;;;;;;2.45;1.92;;;;;;;;;;4959936;28;20045;-81
2021/07/11 03:43:23;;;;;;;4.10;2.07;;;;;;;;;;4969898;28;20027;-83
2021/07/11 03:46:09;;;;;;;3.45;1.90;;;;;;;;;;4950969;29;20035;-82
2021/07/11 03:48:59;;;;;;;3.00;2.13;;;;;;;;;;4950716;29;20015;-82
2021/07/11 03:51:46;;;;;;;2.22;1.73;;;;;;;;;;4956259;28;20030;-81
2021/07/11 03:54:34;;;;;;;2.15;1.88;;;;;;;;;;4969352;28;20023;-82
2021/07/11 03:57:20;;;;;;;3.65;2.00;;;;;;;;;;4970102;28;20236;-81
2021/07/11 04:00:05;;;;;;;2.17;1.70;;;;;;;;;;4969836;28;20736;-82
2021/07/11 04:02:52;;;;;;;9.73;3.15;;;;;;;;;;4969481;28;20027;-82
2021/07/11 04:05:38;;;;;;;2.72;1.92;;;;;;;;;;4961591;28;20498;-82
2021/07/11 04:08:24;;;;;;;5.32;2.00;;;;;;;;;;4946708;28;20394;-82
2021/07/11 04:11:09;;;;;;;3.63;2.03;;;;;;;;;;4969768;28;20035;-80
2021/07/11 04:13:54;;;;;;;4.15;2.20;;;;;;;;;;4968951;28;20030;-81
2021/07/11 04:16:39;;;;;;;4.95;1.63;;;;;;;;;;4969039;28;20031;-81
2021/07/11 04:19:30;;;;;;;2.85;1.90;;;;;;;;;;4969515;28;20685;-81
2021/07/11 04:22:17;;;;;;;5.00;2.28;;;;;;;;;;4969347;28;20034;-81
2021/07/11 04:25:02;;;;;;;2.78;1.70;;;;;;;;;;4969600;28;20031;-81
2021/07/11 04:27:48;;;;;;;2.20;1.63;;;;;;;;;;4969036;28;20511;-81
2021/07/11 04:30:34;;;;;;;2.10;1.90;;;;;;;;;;4967750;28;20088;-81
2021/07/11 04:33:19;;;;;;;3.45;2.00;;;;;;;;;;4961542;28;20030;-81
2021/07/11 04:36:06;;;;;;;3.38;2.25;;;;;;;;;;4957891;28;20524;-81
2021/07/11 04:38:51;;;;;;;2.80;1.73;;;;;;;;;;4955963;28;20034;-82
2021/07/11 04:41:39;;;;;;;3.35;1.83;;;;;;;;;;4968997;28;20077;-81
2021/07/11 04:44:25;;;;;;;3.78;1.90;;;;;;;;;;4965181;28;20080;-82
2021/07/11 04:47:11;;;;;;;3.03;2.00;;;;;;;;;;4961023;28;20517;-84
2021/07/11 04:49:56;;;;;;;5.85;1.88;;;;;;;;;;4949444;29;20390;-82
2021/07/11 04:52:41;;;;;;;6.68;2.20;;;;;;;;;;4951064;28;20027;-82
2021/07/11 04:55:26;;;;;;;6.88;2.40;;;;;;;;;;4965755;28;20023;-81
2021/07/11 04:58:12;;;;;;;4.88;2.80;;;;;;;;;;4968514;28;20019;-82
2021/07/11 05:00:57;;;;;;;2.60;2.05;;;;;;;;;;4969230;28;20359;-81
2021/07/11 05:03:42;;;;;;;3.53;2.85;;;;;;;;;;4968811;28;20029;-81
2021/07/11 05:06:28;;;;;;;5.43;2.35;;;;;;;;;;4968283;28;20051;-84
2021/07/11 05:09:13;;;;;;;3.72;2.25;;;;;;;;;;4963107;28;20035;-81
2021/07/11 05:11:58;;;;;;;4.97;2.60;;;;;;;;;;4953470;28;20174;-82
2021/07/11 05:14:44;;;;;;;4.30;2.58;;;;;;;;;;4965430;28;20027;-82
2021/07/11 05:17:29;;;;;;;5.43;2.30;;;;;;;;;;4969192;28;20066;-82
2021/07/11 05:20:14;;;;;;;4.00;2.45;;;;;;;;;;4967102;28;20029;-82
2021/07/11 05:22:59;;;;;;;3.40;2.88;;;;;;;;;;4963443;28;20031;-81
2021/07/11 05:25:44;;;;;;;6.50;2.30;;;;;;;;;;4967222;28;20170;-81
2021/07/11 05:28:30;;;;;;;3.25;2.13;;;;;;;;;;4955034;28;20065;-82
2021/07/11 05:31:15;;;;;;;5.40;2.22;;;;;;;;;;4968990;28;20023;-81
2021/07/11 05:34:00;;;;;;;3.80;2.30;;;;;;;;;;4962483;28;20019;-81
2021/07/11 05:36:45;;;;;;;4.47;2.60;;;;;;;;;;4949251;29;20034;-81
2021/07/11 05:39:31;;;;;;;3.17;2.22;;;;;;;;;;4947932;29;20360;-81
2021/07/11 05:42:16;;;;;;;4.78;2.53;;;;;;;;;;4949324;29;20019;-81
2021/07/11 05:45:02;;;;;;;3.35;2.05;;;;;;;;;;4963652;28;20030;-83
2021/07/11 05:47:47;;;;;;;5.55;2.10;;;;;;;;;;4969000;28;20027;-82
2021/07/11 05:50:32;;;;;;;2.22;1.95;;;;;;;;;;4960793;28;20470;-81
2021/07/11 05:53:17;;;;;;;3.90;1.95;;;;;;;;;;4955472;28;20035;-82
2021/07/11 05:56:03;;;;;;;2.30;2.10;;;;;;;;;;4969271;28;20178;-82
2021/07/11 05:58:48;;;;;;;3.50;2.50;;;;;;;;;;4970108;28;20023;-82
2021/07/11 06:01:33;;;;;;;4.57;2.42;;;;;;;;;;4972184;28;20099;-82
2021/07/11 06:04:18;;;;;;;4.95;2.35;;;;;;;;;;4968275;28;20035;-81
2021/07/11 06:07:04;;;;;;;4.85;2.20;;;;;;;;;;4971877;28;20193;-82
2021/07/11 06:09:49;;;;;;;3.38;2.35;;;;;;;;;;4972079;28;20027;-81
2021/07/11 06:12:34;;;;;;;3.80;2.08;;;;;;;;;;4971688;28;20030;-82
2021/07/11 06:15:19;;;;;;;4.00;2.03;;;;;;;;;;4971513;28;20111;-82
2021/07/11 06:18:11;;;;;;;4.28;2.15;;;;;;;;;;4965818;28;20027;-82
2021/07/11 06:20:56;;;;;;;4.60;2.05;;;;;;;;;;4952348;29;20035;-82
2021/07/11 06:23:41;;;;;;;2.17;1.70;;;;;;;;;;4956704;28;20019;-82
2021/07/11 06:26:26;;;;;;;3.08;2.30;;;;;;;;;;4971494;28;20026;-81
2021/07/11 06:29:12;;;;;;;4.32;2.05;;;;;;;;;;4958000;28;20500;-81
2021/07/11 06:31:57;;;;;;;4.28;2.20;;;;;;;;;;4971676;28;20182;-81
2021/07/11 06:34:42;;;;;;;2.38;2.17;;;;;;;;;;4964966;28;20054;-82
2021/07/11 06:37:27;;;;;;;3.42;2.08;;;;;;;;;;4951864;29;20027;-81
2021/07/11 06:40:14;;;;;;;2.42;2.08;;;;;;;;;;4960126;28;20412;-83
2021/07/11 06:42:59;;;;;;;3.88;2.10;;;;;;;;;;4970853;28;20478;-81
2021/07/11 06:45:45;;;;;;;4.22;2.20;;;;;;;;;;4952055;29;20050;-81
2021/07/11 06:48:31;;;;;;;4.05;2.00;;;;;;;;;;4952151;29;20426;-81
2021/07/11 06:51:16;;;;;;;3.88;2.10;;;;;;;;;;4951853;29;20130;-81
2021/07/11 06:54:02;;;;;;;3.17;2.05;;;;;;;;;;4942611;28;20132;-83
2021/07/11 06:56:48;;;;;;;3.33;2.17;;;;;;;;;;4971006;28;20470;-82
2021/07/11 06:59:33;;;;;;;2.80;1.95;;;;;;;;;;4969226;28;20030;-82
2021/07/11 07:02:18;;;;;;;2.55;1.98;;;;;;;;;;4971385;28;20034;-82
2021/07/11 07:05:04;;;;;;;3.35;2.35;;;;;;;;;;4962596;28;20055;-82
2021/07/11 07:07:49;;;;;;;3.90;1.98;;;;;;;;;;4951272;28;20110;-82
2021/07/11 07:10:35;;;;;;;2.97;2.03;;;;;;;;;;4949884;29;20390;-81
2021/07/11 07:13:21;;;;;;;2.30;1.80;;;;;;;;;;4967260;28;20031;-81
2021/07/11 07:16:07;;;;;;;3.00;1.90;;;;;;;;;;4970466;28;20378;-82
2021/07/11 07:18:52;;;;;;;8.52;6.75;;;;;;;;;;4968769;28;20605;-81
2021/07/11 07:21:37;;;;;;;4.28;2.60;;;;;;;;;;4970329;28;20023;-83
2021/07/11 07:24:22;;;;;;;2.35;2.10;;;;;;;;;;4970559;28;20038;-83
2021/07/11 07:27:07;;;;;;;1.95;1.70;;;;;;;;;;4970239;28;20474;-82
2021/07/11 07:29:53;;;;;;;2.00;1.80;;;;;;;;;;4970086;28;20556;-83
2021/07/11 07:32:39;;;;;;;2.22;1.92;;;;;;;;;;4970252;28;20473;-83
2021/07/11 07:35:24;;;;;;;4.07;1.92;;;;;;;;;;4969944;28;20393;-83
2021/07/11 07:38:09;;;;;;;1.77;1.65;;;;;;;;;;4970201;28;20485;-82
2021/07/11 07:40:54;;;;;;;3.17;2.10;;;;;;;;;;4968642;28;20481;-82
2021/07/11 07:43:40;;;;;;;3.45;2.13;;;;;;;;;;4969707;28;20548;-82
2021/07/11 07:46:25;;;;;;;7.75;2.88;;;;;;;;;;4963882;28;20486;-83
2021/07/11 07:49:10;;;;;;;3.38;1.80;;;;;;;;;;4949402;29;20031;-83
2021/07/11 07:51:55;;;;;;;5.68;2.15;;;;;;;;;;4950442;29;20103;-85
2021/07/11 07:54:41;;;;;;;3.10;1.90;;;;;;;;;;4953504;29;20034;-82
2021/07/11 07:57:26;;;;;;;2.80;2.05;;;;;;;;;;4969758;28;20477;-83
2021/07/11 08:00:12;;;;;;;3.50;2.20;;;;;;;;;;4956523;28;20089;-88
2021/07/11 08:02:59;;;;;;;6.20;4.93;;;;;;;;;;4972665;28;20026;-83
2021/07/11 08:05:44;;;;;;;5.07;2.10;;;;;;;;;;4968718;28;20039;-82
2021/07/11 08:08:29;;;;;;;4.72;2.05;;;;;;;;;;4969565;28;20070;-82
2021/07/11 08:11:14;;;;;;;4.28;1.83;;;;;;;;;;4970006;28;20109;-83
2021/07/11 08:14:00;;;;;;;3.13;1.85;;;;;;;;;;4950018;29;20026;-83
2021/07/11 08:16:45;;;;;;;3.20;1.85;;;;;;;;;;4941273;29;20030;-84
2021/07/11 08:19:30;;;;;;;2.42;1.98;;;;;;;;;;4950364;28;20023;-84
2021/07/11 08:22:15;;;;;;;2.95;1.85;;;;;;;;;;4950526;29;20085;-83
2021/07/11 08:25:01;;;;;;;3.47;2.28;;;;;;;;;;4950577;29;20038;-83
2021/07/11 08:27:46;;;;;;;2.97;1.70;;;;;;;;;;4961922;28;20031;-83
2021/07/11 08:30:32;;;;;;;3.05;2.05;;;;;;;;;;4948513;29;20437;-83
2021/07/11 08:33:17;;;;;;;3.42;1.90;;;;;;;;;;4936844;29;20023;-83
2021/07/11 08:36:02;;;;;;;2.50;2.00;;;;;;;;;;4969157;28;20045;-83
2021/07/11 08:38:47;;;;;;;5.97;2.20;;;;;;;;;;4969425;28;20102;-83
2021/07/11 08:41:34;;;;;;;3.50;2.20;;;;;;;;;;4969560;28;20035;-81
2021/07/11 08:44:20;;;;;;;2.70;1.73;;;;;;;;;;4969218;28;20031;-82
2021/07/11 08:47:05;;;;;;;7.95;5.80;;;;;;;;;;4963584;28;20112;-82
2021/07/11 08:49:51;;;;;;;8.15;6.60;;;;;;;;;;4950190;29;20471;-82
2021/07/11 08:52:37;;;;;;;2.30;1.85;;;;;;;;;;4949961;29;20462;-85
2021/07/11 08:55:24;;;;;;;3.75;1.80;;;;;;;;;;4956010;28;20073;-84
2021/07/11 08:58:09;;;;;;;3.58;1.75;;;;;;;;;;4969177;28;20106;-83
2021/07/11 09:00:55;;;;;;;2.72;1.90;;;;;;;;;;4967468;28;20026;-84
2021/07/11 09:03:40;;;;;;;2.22;1.70;;;;;;;;;;4952552;28;20437;-84
2021/07/11 09:06:25;;;;;;;4.53;1.98;;;;;;;;;;4968218;28;20047;-84
2021/07/11 09:09:11;;;;;;;3.95;1.80;;;;;;;;;;4968165;28;20064;-84
2021/07/11 09:12:01;;;;;;;4.93;2.00;;;;;;;;;;4969217;28;20015;-83
2021/07/11 09:14:46;;;;;;;3.03;2.15;;;;;;;;;;4968712;28;20474;-83
2021/07/11 09:17:33;;;;;;;2.80;1.98;;;;;;;;;;4949616;29;20033;-83
2021/07/11 09:20:18;;;;;;;3.10;1.70;;;;;;;;;;4949738;29;20027;-83
2021/07/11 09:23:03;;;;;;;3.17;1.83;;;;;;;;;;4949942;29;20039;-83
2021/07/11 09:26:16;;;;;;;2.70;1.98;;;;;;;;;;4949995;29;20019;-83
2021/07/11 09:29:01;;;;;;;2.22;1.75;;;;;;;;;;4947904;29;20071;-82
2021/07/11 09:31:46;;;;;;;3.33;2.05;;;;;;;;;;4954720;28;20049;-83
2021/07/11 09:34:32;;;;;;;1.83;1.45;;;;;;;;;;4972629;28;20023;-83
2021/07/11 09:37:18;;;;;;;4.20;1.95;;;;;;;;;;4972689;28;20117;-84
2021/07/11 09:40:04;;;;;;;2.20;1.80;;;;;;;;;;4973082;28;20600;-83
2021/07/11 09:42:55;;;;;;;2.60;2.08;;;;;;;;;;4972232;28;20045;-83
2021/07/11 09:45:41;;;;;;;3.00;1.83;;;;;;;;;;4969607;28;20046;-83
2021/07/11 09:48:33;;;;;;;3.33;1.88;;;;;;;;;;4972388;28;20085;-82
2021/07/11 09:51:26;;;;;;;3.22;1.88;;;;;;;;;;4972883;28;20149;-83
2021/07/11 09:54:12;;;;;;;3.22;1.65;;;;;;;;;;4971995;28;20031;-83
2021/07/11 09:56:57;;;;;;;3.70;2.00;;;;;;;;;;4966729;28;20112;-86
2021/07/11 09:59:43;;;;;;;2.97;2.20;;;;;;;;;;4951509;28;20026;-83
2021/07/11 10:02:31;;;;;;;3.88;2.33;;;;;;;;;;4952739;29;20023;-84
2021/07/11 10:05:17;;;;;;;3.22;2.05;;;;;;;;;;4954607;28;20043;-84
2021/07/11 10:08:02;;;;;;;2.95;1.98;;;;;;;;;;4971789;28;20398;-84
2021/07/11 10:10:48;;;;;;;2.60;1.77;;;;;;;;;;4972614;28;20027;-87
2021/07/11 10:13:33;;;;;;;2.95;2.00;;;;;;;;;;4966291;28;20023;-84
2021/07/11 10:16:19;;;;;;;2.95;1.88;;;;;;;;;;4968405;28;20170;-84
2021/07/11 10:19:06;;;;;;;3.67;1.83;;;;;;;;;;4951242;29;20118;-84
2021/07/11 10:21:52;;;;;;;3.72;2.00;;;;;;;;;;4952509;29;20078;-84
2021/07/11 10:24:46;;;;;;;2.90;2.30;;;;;;;;;;4952602;29;20485;-84
2021/07/11 10:27:31;;;;;;;3.33;2.08;;;;;;;;;;4965190;28;20418;-85
2021/07/11 10:30:16;;;;;;;2.45;1.75;;;;;;;;;;4953072;29;20089;-85
2021/07/11 10:33:14;;;;;;;3.33;2.00;;;;;;;;;;4952744;29;20031;-84
2021/07/11 10:36:02;;;;;;;2.50;1.80;;;;;;;;;;4957914;28;20289;-87
2021/07/11 10:38:52;;;;;;;3.63;1.60;;;;;;;;;;4971543;28;20019;-86
2021/07/11 10:41:51;;;;;;;2.97;2.08;;;;;;;;;;4969648;28;20026;-84
2021/07/11 10:44:36;;;;;;;2.72;1.88;;;;;;;;;;4952255;29;20506;-84
2021/07/11 10:47:22;;;;;;;2.38;1.85;;;;;;;;;;4965287;28;20043;-85
2021/07/11 10:50:08;;;;;;;4.13;2.15;;;;;;;;;;4971389;28;20489;-84
2021/07/11 10:52:55;;;;;;;4.40;1.80;;;;;;;;;;4971528;28;20121;-83
2021/07/11 10:55:42;;;;;;;2.03;1.83;;;;;;;;;;4965069;28;20035;-83
2021/07/11 10:58:36;;;;;;;5.90;2.10;;;;;;;;;;4950282;29;20529;-84
2021/07/11 11:01:22;;;;;;;2.47;1.70;;;;;;;;;;4958887;28;20099;-84
2021/07/11 11:04:15;;;;;;;3.20;1.63;;;;;;;;;;4968102;28;20462;-84
2021/07/11 11:07:13;;;;;;;2.28;1.52;;;;;;;;;;4969301;28;20516;-84
2021/07/11 11:10:00;;;;;;;2.17;1.75;;;;;;;;;;4971015;28;20034;-83
2021/07/11 11:12:46;;;;;;;4.97;1.85;;;;;;;;;;4971050;28;20354;-83
2021/07/11 11:15:37;;;;;;;3.15;1.90;;;;;;;;;;4970142;28;20370;-84
2021/07/11 11:18:25;;;;;;;2.08;1.48;;;;;;;;;;4971224;28;20027;-83
2021/07/11 11:21:15;;;;;;;2.72;1.80;;;;;;;;;;4970545;28;20018;-83
2021/07/11 11:24:00;;;;;;;2.70;2.05;;;;;;;;;;4970891;28;20525;-83
2021/07/11 11:26:45;;;;;;;1.95;1.70;;;;;;;;;;4970464;28;20041;-82
2021/07/11 11:29:30;;;;;;;2.83;1.92;;;;;;;;;;4970858;28;20027;-81
2021/07/11 11:32:15;;;;;;;4.20;2.03;;;;;;;;;;4964811;28;20035;-81
2021/07/11 11:35:01;;;;;;;2.45;1.80;;;;;;;;;;4950899;29;20127;-82
2021/07/11 11:37:50;;;;;;;2.38;1.63;;;;;;;;;;4966199;28;20507;-81
2021/07/11 11:40:36;;;;;;;;;;;;;;;;;;4971050;28;20114;-80
2021/07/11 11:43:21;;;;;;;2.83;1.95;;;;;;;;;;4970163;28;19910;-81
2021/07/11 11:46:07;;;;;;;2.03;1.52;;;;;;;;;;4970392;28;20026;-81
2021/07/11 11:48:53;;;;;;;2.25;1.80;;;;;;;;;;4970026;28;20113;-83
2021/07/11 11:51:43;;;;;;;2.65;1.73;;;;;;;;;;4969744;28;20022;-81
2021/07/11 11:54:41;;;;;;;2.47;1.60;;;;;;;;;;4969111;28;20077;-82
2021/07/11 11:57:30;;;;;;;3.90;1.98;;;;;;;;;;4964285;28;20434;-82
2021/07/11 12:00:16;;;;;;;2.28;1.30;;;;;;;;;;4949105;29;20034;-82
2021/07/11 12:03:02;;;;;;;3.70;1.73;;;;;;;;;;4956054;28;20039;-83
2021/07/11 12:05:48;;;;;;;6.93;1.80;;;;;;;;;;4950322;29;20047;-83
2021/07/11 12:08:35;;;;;;;2.47;1.80;;;;;;;;;;4966575;28;20026;-84
2021/07/11 12:11:20;;;;;;;3.55;2.10;;;;;;;;;;4970233;28;20122;-83
2021/07/11 12:14:15;;;;;;;3.00;1.83;;;;;;;;;;4969165;28;20023;-83
2021/07/11 12:17:02;;;;;;;2.75;1.60;;;;;;;;;;4958939;28;20394;-84
2021/07/11 12:19:49;;;;;;;8.50;1.77;;;;;;;;;;4969776;28;20402;-84
2021/07/11 12:22:35;;;;;;;2.17;1.73;;;;;;;;;;4969837;28;20027;-83
2021/07/11 12:25:27;;;;;;;2.63;1.60;;;;;;;;;;4969894;28;20114;-84
2021/07/11 12:28:16;;;;;;;2.13;1.83;;;;;;;;;;4973722;28;20453;-84
2021/07/11 12:31:02;;;;;;;1.80;1.50;;;;;;;;;;4969934;28;20019;-84
2021/07/11 12:33:49;;;;;;;2.47;1.65;;;;;;;;;;4964208;28;20031;-84
2021/07/11 12:36:38;;;;;;;2.58;1.60;;;;;;;;;;4958161;28;20097;-84
2021/07/11 12:39:24;;;;;;;4.32;1.70;;;;;;;;;;4985320;28;20216;-84
2021/07/11 12:42:14;;;;;;;4.57;1.60;;;;;;;;;;4979362;28;20032;-84
2021/07/11 12:44:59;;;;;;;1.60;1.40;;;;;;;;;;4968208;28;20107;-83
2021/07/11 12:47:48;;;;;;;3.92;1.80;;;;;;;;;;4963178;28;20039;-84
2021/07/11 12:50:41;;;;;;;2.35;1.50;;;;;;;;;;4947062;29;20093;-84
2021/07/11 12:53:35;;;;;;;2.03;1.67;;;;;;;;;;4945492;28;20027;-84
2021/07/11 12:56:22;;;;;;;3.03;1.73;;;;;;;;;;4967736;28;20181;-85
2021/07/11 12:59:08;;;;;;;2.55;1.83;;;;;;;;;;4945392;29;20382;-85
2021/07/11 13:02:06;;;;;;;2.50;1.67;;;;;;;;;;4946325;29;20054;-84
2021/07/11 13:04:55;;;;;;;2.27;2.00;;;;;;;;;;4953680;28;20047;-84
2021/07/11 13:07:40;;;;;;;3.42;2.63;;;;;;;;;;4958508;28;20333;-87
2021/07/11 13:10:25;;;;;;;5.35;1.80;;;;;;;;;;4973209;28;20035;-83
2021/07/11 13:13:11;;;;;;;4.63;2.20;;;;;;;;;;4969459;28;20031;-84
2021/07/11 13:15:57;;;;;;;3.10;1.70;;;;;;;;;;4972859;28;20054;-84
2021/07/11 13:18:42;;;;;;;3.25;2.05;;;;;;;;;;4972754;28;20033;-84
2021/07/11 13:21:27;;;;;;;3.55;1.67;;;;;;;;;;4971705;28;20029;-84
2021/07/11 13:24:13;;;;;;;2.63;1.80;;;;;;;;;;4972819;28;20121;-85
2021/07/11 13:26:58;;;;;;;1.85;1.63;;;;;;;;;;4969218;28;20631;-84
2021/07/11 13:29:43;;;;;;;5.28;2.20;;;;;;;;;;4965248;28;20027;-84
2021/07/11 13:32:28;;;;;;;2.65;1.90;;;;;;;;;;4953192;29;20118;-84
2021/07/11 13:35:14;;;;;;;3.42;1.60;;;;;;;;;;4963925;28;20037;-84
2021/07/11 13:37:59;;;;;;;3.28;1.77;;;;;;;;;;4972227;28;20078;-84
2021/07/11 13:40:44;;;;;;;4.32;2.30;;;;;;;;;;4972470;28;20019;-84
2021/07/11 13:43:31;;;;;;;3.60;1.77;;;;;;;;;;4972747;28;20027;-85
2021/07/11 13:46:16;;;;;;;2.55;1.70;;;;;;;;;;4972513;28;20030;-85
2021/07/11 13:49:02;;;;;;;3.00;2.17;;;;;;;;;;4972230;28;20022;-84
2021/07/11 13:51:47;;;;;;;5.30;2.10;;;;;;;;;;4972843;28;20058;-84
2021/07/11 13:54:32;;;;;;;6.20;1.83;;;;;;;;;;4971799;28;20635;-84
2021/07/11 13:57:17;;;;;;;3.40;2.22;;;;;;;;;;4971736;28;20031;-85
2021/07/11 14:00:05;;;;;;;2.95;2.10;;;;;;;;;;4971406;28;20122;-84
2021/07/11 14:02:50;;;;;;;3.58;2.30;;;;;;;;;;4972167;28;20142;-84
2021/07/11 14:05:35;;;;;;;4.30;2.00;;;;;;;;;;4962713;28;20657;-84
2021/07/11 14:08:24;;;;;;;2.25;1.42;;;;;;;;;;4964787;28;20026;-84
2021/07/11 14:11:09;;;;;;;3.42;1.58;;;;;;;;;;4969143;28;20543;-84
2021/07/11 14:13:55;;;;;;;1.80;1.30;;;;;;;;;;4966288;28;20038;-85
2021/07/11 14:16:40;;;;;;;2.22;1.38;;;;;;;;;;4964479;28;20486;-84
2021/07/11 14:19:25;;;;;;;2.65;1.60;;;;;;;;;;4971972;28;20069;-84
2021/07/11 14:22:13;;;;;;;3.13;1.65;;;;;;;;;;4972250;28;20018;-84
2021/07/11 14:24:58;;;;;;;5.00;1.80;;;;;;;;;;4971651;28;20385;-84
2021/07/11 14:27:44;;;;;;;2.08;1.55;;;;;;;;;;4971647;28;20067;-84
2021/07/11 14:30:29;;;;;;;2.45;2.20;;;;;;;;;;4970300;28;20023;-85
2021/07/11 14:33:15;;;;;;;3.05;1.73;;;;;;;;;;4970941;28;20027;-85
2021/07/11 14:36:00;;;;;;;2.33;1.50;;;;;;;;;;4971501;28;20022;-85
2021/07/11 14:38:46;;;;;;;3.33;1.92;;;;;;;;;;4963401;28;20106;-85
2021/07/11 14:41:31;;;;;;;3.08;1.80;;;;;;;;;;4951989;29;20098;-85
2021/07/11 14:44:19;;;;;;;2.95;1.50;;;;;;;;;;4952304;29;20082;-84
2021/07/11 14:47:05;;;;;;;2.20;1.60;;;;;;;;;;4961646;28;20027;-85
2021/07/11 14:49:50;;;;;;;2.17;1.70;;;;;;;;;;4966007;28;20026;-85
2021/07/11 14:52:36;;;;;;;2.70;1.50;;;;;;;;;;4971034;28;20031;-84
2021/07/11 14:55:21;;;;;;;3.80;1.60;;;;;;;;;;4957741;28;20037;-84
2021/07/11 14:58:07;;;;;;;2.92;1.83;;;;;;;;;;4971341;28;20046;-84
2021/07/11 15:00:52;;;;;;;2.75;1.67;;;;;;;;;;4967401;28;20046;-84
2021/07/11 15:03:37;;;;;;;3.17;1.58;;;;;;;;;;4971555;28;20027;-84
2021/07/11 15:06:23;;;;;;;2.55;1.70;;;;;;;;;;4970677;28;20134;-86
2021/07/11 15:09:08;;;;;;;3.25;1.58;;;;;;;;;;4970805;28;20080;-84
2021/07/11 15:11:53;;;;;;;1.98;1.52;;;;;;;;;;4971042;28;20563;-84
2021/07/11 15:14:38;;;;;;;3.90;2.22;;;;;;;;;;4967567;28;20023;-84
2021/07/11 15:17:24;;;;;;;1.77;1.45;;;;;;;;;;4970649;28;20026;-86
2021/07/11 15:20:09;;;;;;;2.97;1.77;;;;;;;;;;4971048;28;20027;-84
2021/07/11 15:22:54;;;;;;;2.55;1.90;;;;;;;;;;4971235;28;20121;-84
2021/07/11 15:25:40;;;;;;;3.95;1.83;;;;;;;;;;4971308;28;20023;-85
2021/07/11 15:28:25;;;;;;;4.55;1.90;;;;;;;;;;4954645;28;20042;-84
2021/07/11 15:31:11;;;;;;;2.60;1.70;;;;;;;;;;4967063;28;20485;-87
2021/07/11 15:33:56;;;;;;;4.85;1.80;;;;;;;;;;4970449;28;20086;-84
2021/07/11 15:36:41;;;;;;;3.08;1.70;;;;;;;;;;4970793;28;20026;-84
2021/07/11 15:39:26;;;;;;;3.65;1.88;;;;;;;;;;4968755;28;20105;-85
2021/07/11 15:42:11;;;;;;;9.77;6.60;;;;;;;;;;4970193;28;20046;-85
2021/07/11 15:44:57;;;;;;;21.42;18.17;;;;;;;;;;4967572;28;20093;-86
2021/07/11 15:47:42;;;;;;;33.60;26.23;;;;;;;;;;4963755;28;20024;-85
2021/07/11 15:50:27;;;;;;;9.27;6.13;;;;;;;;;;4955472;28;20026;-85
2021/07/11 15:53:14;;;;;;;3.90;2.88;;;;;;;;;;4968498;28;20512;-85
2021/07/11 15:56:00;;;;;;;4.53;2.22;;;;;;;;;;4966485;28;20508;-85
2021/07/11 15:58:45;;;;;;;8.40;2.45;;;;;;;;;;4970577;28;20033;-85
2021/07/11 16:01:30;;;;;;;4.95;2.30;;;;;;;;;;4969895;28;20093;-87
2021/07/11 16:04:15;;;;;;;2.83;2.00;;;;;;;;;;4969844;28;20030;-87
2021/07/11 16:07:01;;;;;;;2.70;2.05;;;;;;;;;;4970028;28;20130;-85
2021/07/11 16:09:46;;;;;;;3.85;2.80;;;;;;;;;;4969552;28;20477;-85
2021/07/11 16:12:32;;;;;;;3.50;2.53;;;;;;;;;;4969658;28;20031;-84
2021/07/11 16:15:18;;;;;;;8.10;5.53;;;;;;;;;;4963856;28;20094;-84
2021/07/11 16:18:03;;;;;;;8.65;4.10;;;;;;;;;;4966640;28;20034;-84
2021/07/11 16:20:48;;;;;;;4.15;2.65;;;;;;;;;;4968363;28;20415;-85
2021/07/11 16:23:34;;;;;;;20.67;16.60;;;;;;;;;;4950575;29;20122;-85
2021/07/11 16:26:19;;;;;;;19.85;17.40;;;;;;;;;;4950239;29;20020;-85
2021/07/11 16:29:04;;;;;;;23.83;18.52;;;;;;;;;;4968429;28;20081;-85
2021/07/11 16:31:49;;;;;;;5.60;3.03;;;;;;;;;;4969244;28;20035;-84
2021/07/11 16:34:35;;;;;;;2.33;1.73;;;;;;;;;;4966772;28;20029;-85
2021/07/11 16:37:20;;;;;;;3.90;2.17;;;;;;;;;;4967938;28;20022;-86